sensor_id;sensor_type;location;lat;lon;timestamp;temperature;humidity
1301;DHT22;59099;48.806;9.160;2022-07-05T00:02:23;16.70;99.90
1301;DHT22;59099;48.806;9.160;2022-07-05T00:04:48;16.70;99.90
1301;DHT22;59099;48.806;9.160;2022-07-05T00:07:19;16.70;99.90
1301;DHT22;59099;48.806;9.160;2022-07-05T00:12:15;16.60;99.90
1301;DHT22;59099;48.806;9.160;2022-07-05T00:14:43;16.50;99.90
1301;DHT22;59099;48.806;9.160;2022-07-05T00:17:09;16.50;99.90
1301;DHT22;59099;48.806;9.160;2022-07-05T00:19:35;16.50;99.90
1301;DHT22;59099;48.806;9.160;2022-07-05T00:22:01;16.50;99.90
1301;DHT22;59099;48.806;9.160;2022-07-05T00:24:27;16.50;99.90
1301;DHT22;59099;48.806;9.160;2022-07-05T00:26:52;16.50;99.90
1301;DHT22;59099;48.806;9.160;2022-07-05T00:29:18;16.60;99.90
1301;DHT22;59099;48.806;9.160;2022-07-05T00:31:44;16.60;99.90
1301;DHT22;59099;48.806;9.160;2022-07-05T00:34:10;16.50;99.90
1301;DHT22;59099;48.806;9.160;2022-07-05T00:36:36;16.50;99.90
1301;DHT22;59099;48.806;9.160;2022-07-05T00:39:05;16.40;99.90
1301;DHT22;59099;48.806;9.160;2022-07-05T00:41:31;16.40;99.90
1301;DHT22;59099;48.806;9.160;2022-07-05T00:43:59;16.30;99.90
1301;DHT22;59099;48.806;9.160;2022-07-05T00:46:26;16.20;99.90
1301;DHT22;59099;48.806;9.160;2022-07-05T00:48:52;16.10;99.90
1301;DHT22;59099;48.806;9.160;2022-07-05T00:51:19;16.10;99.90
1301;DHT22;59099;48.806;9.160;2022-07-05T00:53:44;16.10;99.90
1301;DHT22;59099;48.806;9.160;2022-07-05T00:56:11;16.10;99.90
1301;DHT22;59099;48.806;9.160;2022-07-05T00:58:37;16.10;99.90
1301;DHT22;59099;48.806;9.160;2022-07-05T01:01:05;16.10;99.90
1301;DHT22;59099;48.806;9.160;2022-07-05T01:03:32;16.00;99.90
1301;DHT22;59099;48.806;9.160;2022-07-05T01:06:00;15.90;99.90
1301;DHT22;59099;48.806;9.160;2022-07-05T01:08:26;15.90;99.90
1301;DHT22;59099;48.806;9.160;2022-07-05T01:10:57;15.80;99.90
1301;DHT22;59099;48.806;9.160;2022-07-05T01:13:22;15.70;99.90
1301;DHT22;59099;48.806;9.160;2022-07-05T01:15:48;15.80;99.90
1301;DHT22;59099;48.806;9.160;2022-07-05T01:18:15;15.70;99.90
1301;DHT22;59099;48.806;9.160;2022-07-05T01:20:41;15.70;99.90
1301;DHT22;59099;48.806;9.160;2022-07-05T01:23:08;15.60;99.90
1301;DHT22;59099;48.806;9.160;2022-07-05T01:25:34;15.60;99.90
1301;DHT22;59099;48.806;9.160;2022-07-05T01:28:03;15.60;99.90
1301;DHT22;59099;48.806;9.160;2022-07-05T01:30:28;15.50;99.90
1301;DHT22;59099;48.806;9.160;2022-07-05T01:32:55;15.50;99.90
1301;DHT22;59099;48.806;9.160;2022-07-05T01:35:21;15.60;99.90
1301;DHT22;59099;48.806;9.160;2022-07-05T01:37:50;15.50;99.90
1301;DHT22;59099;48.806;9.160;2022-07-05T01:40:16;15.60;99.90
1301;DHT22;59099;48.806;9.160;2022-07-05T01:42:42;15.50;99.90
1301;DHT22;59099;48.806;9.160;2022-07-05T01:45:08;15.40;99.90
1301;DHT22;59099;48.806;9.160;2022-07-05T01:47:43;15.40;99.90
1301;DHT22;59099;48.806;9.160;2022-07-05T01:50:13;15.40;99.90
1301;DHT22;59099;48.806;9.160;2022-07-05T01:52:42;15.30;99.90
1301;DHT22;59099;48.806;9.160;2022-07-05T01:55:09;15.40;99.90
1301;DHT22;59099;48.806;9.160;2022-07-05T01:57:35;15.40;99.90
1301;DHT22;59099;48.806;9.160;2022-07-05T02:00:01;15.30;99.90
1301;DHT22;59099;48.806;9.160;2022-07-05T02:02:27;15.30;99.90
1301;DHT22;59099;48.806;9.160;2022-07-05T02:04:53;15.30;99.90
1301;DHT22;59099;48.806;9.160;2022-07-05T02:07:20;15.20;99.90
1301;DHT22;59099;48.806;9.160;2022-07-05T02:09:46;15.30;99.90
1301;DHT22;59099;48.806;9.160;2022-07-05T02:12:12;15.30;99.90
1301;DHT22;59099;48.806;9.160;2022-07-05T02:14:40;15.10;99.90
1301;DHT22;59099;48.806;9.160;2022-07-05T02:17:11;15.00;99.90
1301;DHT22;59099;48.806;9.160;2022-07-05T02:19:38;15.00;99.90
1301;DHT22;59099;48.806;9.160;2022-07-05T02:22:05;15.00;99.90
1301;DHT22;59099;48.806;9.160;2022-07-05T02:24:32;15.00;99.90
1301;DHT22;59099;48.806;9.160;2022-07-05T02:27:17;14.90;99.90
1301;DHT22;59099;48.806;9.160;2022-07-05T02:29:45;14.90;99.90
1301;DHT22;59099;48.806;9.160;2022-07-05T02:32:13;14.80;99.90
1301;DHT22;59099;48.806;9.160;2022-07-05T02:34:39;14.70;99.90
1301;DHT22;59099;48.806;9.160;2022-07-05T02:37:05;14.60;99.90
1301;DHT22;59099;48.806;9.160;2022-07-05T02:39:33;14.50;99.90
1301;DHT22;59099;48.806;9.160;2022-07-05T02:42:00;14.50;99.90
1301;DHT22;59099;48.806;9.160;2022-07-05T02:44:26;14.50;99.90
1301;DHT22;59099;48.806;9.160;2022-07-05T02:46:52;14.40;99.90
1301;DHT22;59099;48.806;9.160;2022-07-05T02:49:20;14.30;99.90
1301;DHT22;59099;48.806;9.160;2022-07-05T02:51:46;14.30;99.90
1301;DHT22;59099;48.806;9.160;2022-07-05T02:54:13;14.30;99.90
1301;DHT22;59099;48.806;9.160;2022-07-05T02:56:40;14.30;99.90
1301;DHT22;59099;48.806;9.160;2022-07-05T02:59:08;14.20;99.90
1301;DHT22;59099;48.806;9.160;2022-07-05T03:01:36;14.20;99.90
1301;DHT22;59099;48.806;9.160;2022-07-05T03:04:07;14.20;99.90
1301;DHT22;59099;48.806;9.160;2022-07-05T03:06:36;14.10;99.90
1301;DHT22;59099;48.806;9.160;2022-07-05T03:09:02;14.20;99.90
1301;DHT22;59099;48.806;9.160;2022-07-05T03:11:29;14.20;99.90
1301;DHT22;59099;48.806;9.160;2022-07-05T03:13:55;14.20;99.90
1301;DHT22;59099;48.806;9.160;2022-07-05T03:16:22;14.20;99.90
1301;DHT22;59099;48.806;9.160;2022-07-05T03:18:51;14.20;99.90
1301;DHT22;59099;48.806;9.160;2022-07-05T03:21:17;14.20;99.90
1301;DHT22;59099;48.806;9.160;2022-07-05T03:23:43;14.20;99.90
1301;DHT22;59099;48.806;9.160;2022-07-05T03:26:09;14.20;99.90
1301;DHT22;59099;48.806;9.160;2022-07-05T03:28:35;14.10;99.90
1301;DHT22;59099;48.806;9.160;2022-07-05T03:31:01;14.10;99.90
1301;DHT22;59099;48.806;9.160;2022-07-05T03:33:30;14.10;99.90
1301;DHT22;59099;48.806;9.160;2022-07-05T03:35:59;14.20;99.90
1301;DHT22;59099;48.806;9.160;2022-07-05T03:38:26;14.10;99.90
1301;DHT22;59099;48.806;9.160;2022-07-05T03:40:52;14.10;99.90
1301;DHT22;59099;48.806;9.160;2022-07-05T03:43:18;14.10;99.90
1301;DHT22;59099;48.806;9.160;2022-07-05T03:45:43;14.00;99.90
1301;DHT22;59099;48.806;9.160;2022-07-05T03:48:10;14.10;99.90
1301;DHT22;59099;48.806;9.160;2022-07-05T03:50:35;14.00;99.90
1301;DHT22;59099;48.806;9.160;2022-07-05T03:53:01;13.90;99.90
1301;DHT22;59099;48.806;9.160;2022-07-05T03:55:31;13.90;99.90
1301;DHT22;59099;48.806;9.160;2022-07-05T03:57:56;13.90;99.90
1301;DHT22;59099;48.806;9.160;2022-07-05T04:00:22;14.00;99.90
1301;DHT22;59099;48.806;9.160;2022-07-05T04:02:55;14.00;99.90
1301;DHT22;59099;48.806;9.160;2022-07-05T04:05:23;14.00;99.90
1301;DHT22;59099;48.806;9.160;2022-07-05T04:07:50;14.00;99.90
1301;DHT22;59099;48.806;9.160;2022-07-05T04:10:18;14.00;99.90
1301;DHT22;59099;48.806;9.160;2022-07-05T04:12:45;14.00;99.90
1301;DHT22;59099;48.806;9.160;2022-07-05T04:15:12;14.00;99.90
1301;DHT22;59099;48.806;9.160;2022-07-05T04:17:55;14.10;99.90
1301;DHT22;59099;48.806;9.160;2022-07-05T04:20:24;14.10;99.90
1301;DHT22;59099;48.806;9.160;2022-07-05T04:22:52;14.10;99.90
1301;DHT22;59099;48.806;9.160;2022-07-05T04:25:21;14.10;99.90
1301;DHT22;59099;48.806;9.160;2022-07-05T04:27:55;14.10;99.90
1301;DHT22;59099;48.806;9.160;2022-07-05T04:30:25;14.20;99.90
1301;DHT22;59099;48.806;9.160;2022-07-05T04:32:53;14.30;99.90
1301;DHT22;59099;48.806;9.160;2022-07-05T04:35:19;14.30;99.90
1301;DHT22;59099;48.806;9.160;2022-07-05T04:37:49;14.30;99.90
1301;DHT22;59099;48.806;9.160;2022-07-05T04:40:15;14.40;99.90
1301;DHT22;59099;48.806;9.160;2022-07-05T04:42:42;14.40;99.90
1301;DHT22;59099;48.806;9.160;2022-07-05T04:45:10;14.30;99.90
1301;DHT22;59099;48.806;9.160;2022-07-05T04:47:36;14.40;99.90
1301;DHT22;59099;48.806;9.160;2022-07-05T04:50:04;14.40;99.90
1301;DHT22;59099;48.806;9.160;2022-07-05T04:52:30;14.60;99.90
1301;DHT22;59099;48.806;9.160;2022-07-05T04:54:56;14.70;99.90
1301;DHT22;59099;48.806;9.160;2022-07-05T04:57:22;14.80;99.90
1301;DHT22;59099;48.806;9.160;2022-07-05T04:59:48;14.90;99.90
1301;DHT22;59099;48.806;9.160;2022-07-05T05:02:14;14.90;99.90
1301;DHT22;59099;48.806;9.160;2022-07-05T05:04:39;15.00;99.90
1301;DHT22;59099;48.806;9.160;2022-07-05T05:07:05;15.10;99.90
1301;DHT22;59099;48.806;9.160;2022-07-05T05:09:31;15.20;99.90
1301;DHT22;59099;48.806;9.160;2022-07-05T05:11:57;15.30;99.90
1301;DHT22;59099;48.806;9.160;2022-07-05T05:14:23;15.50;99.90
1301;DHT22;59099;48.806;9.160;2022-07-05T05:16:49;15.60;99.90
1301;DHT22;59099;48.806;9.160;2022-07-05T05:19:15;15.80;99.90
1301;DHT22;59099;48.806;9.160;2022-07-05T05:21:40;15.80;99.90
1301;DHT22;59099;48.806;9.160;2022-07-05T05:24:06;15.90;99.90
1301;DHT22;59099;48.806;9.160;2022-07-05T05:26:33;15.90;99.90
1301;DHT22;59099;48.806;9.160;2022-07-05T05:28:59;16.00;99.90
1301;DHT22;59099;48.806;9.160;2022-07-05T05:31:25;16.10;99.90
1301;DHT22;59099;48.806;9.160;2022-07-05T05:33:51;16.20;99.90
1301;DHT22;59099;48.806;9.160;2022-07-05T05:36:17;16.20;99.90
1301;DHT22;59099;48.806;9.160;2022-07-05T05:38:43;16.30;99.90
1301;DHT22;59099;48.806;9.160;2022-07-05T05:41:09;16.50;99.90
1301;DHT22;59099;48.806;9.160;2022-07-05T05:43:34;16.60;99.90
1301;DHT22;59099;48.806;9.160;2022-07-05T05:46:00;16.80;99.90
1301;DHT22;59099;48.806;9.160;2022-07-05T05:48:26;16.90;99.90
1301;DHT22;59099;48.806;9.160;2022-07-05T05:50:52;17.10;99.90
1301;DHT22;59099;48.806;9.160;2022-07-05T05:53:18;17.30;99.90
1301;DHT22;59099;48.806;9.160;2022-07-05T05:55:44;17.50;99.90
1301;DHT22;59099;48.806;9.160;2022-07-05T05:58:23;17.60;99.90
1301;DHT22;59099;48.806;9.160;2022-07-05T06:00:49;17.80;99.90
1301;DHT22;59099;48.806;9.160;2022-07-05T06:03:19;18.00;99.90
1301;DHT22;59099;48.806;9.160;2022-07-05T06:05:46;18.20;99.90
1301;DHT22;59099;48.806;9.160;2022-07-05T06:08:12;18.50;99.90
1301;DHT22;59099;48.806;9.160;2022-07-05T06:10:38;18.50;99.90
1301;DHT22;59099;48.806;9.160;2022-07-05T06:13:13;18.60;99.90
1301;DHT22;59099;48.806;9.160;2022-07-05T06:15:40;18.60;99.90
1301;DHT22;59099;48.806;9.160;2022-07-05T06:18:10;18.60;99.90
1301;DHT22;59099;48.806;9.160;2022-07-05T06:20:38;18.60;99.90
1301;DHT22;59099;48.806;9.160;2022-07-05T06:23:06;18.70;99.90
1301;DHT22;59099;48.806;9.160;2022-07-05T06:25:33;18.80;99.90
1301;DHT22;59099;48.806;9.160;2022-07-05T06:28:02;18.80;99.90
1301;DHT22;59099;48.806;9.160;2022-07-05T06:30:30;18.90;99.90
1301;DHT22;59099;48.806;9.160;2022-07-05T06:32:57;19.00;99.90
1301;DHT22;59099;48.806;9.160;2022-07-05T06:35:24;19.00;99.90
1301;DHT22;59099;48.806;9.160;2022-07-05T06:38:09;18.90;99.90
1301;DHT22;59099;48.806;9.160;2022-07-05T06:40:37;19.00;99.90
1301;DHT22;59099;48.806;9.160;2022-07-05T06:43:08;19.10;99.90
1301;DHT22;59099;48.806;9.160;2022-07-05T06:46:00;19.20;99.90
1301;DHT22;59099;48.806;9.160;2022-07-05T06:48:25;19.40;99.90
1301;DHT22;59099;48.806;9.160;2022-07-05T06:50:51;19.50;99.90
1301;DHT22;59099;48.806;9.160;2022-07-05T06:53:17;19.60;99.90
1301;DHT22;59099;48.806;9.160;2022-07-05T06:55:43;19.60;99.90
1301;DHT22;59099;48.806;9.160;2022-07-05T06:58:12;19.60;99.90
1301;DHT22;59099;48.806;9.160;2022-07-05T07:00:39;19.60;99.90
1301;DHT22;59099;48.806;9.160;2022-07-05T07:03:05;19.80;99.90
1301;DHT22;59099;48.806;9.160;2022-07-05T07:05:30;19.90;99.90
1301;DHT22;59099;48.806;9.160;2022-07-05T07:07:56;20.00;99.90
1301;DHT22;59099;48.806;9.160;2022-07-05T07:10:41;20.10;99.90
1301;DHT22;59099;48.806;9.160;2022-07-05T07:13:07;20.20;99.90
1301;DHT22;59099;48.806;9.160;2022-07-05T07:15:33;20.30;99.90
1301;DHT22;59099;48.806;9.160;2022-07-05T07:17:59;20.40;99.90
1301;DHT22;59099;48.806;9.160;2022-07-05T07:20:26;20.50;99.90
1301;DHT22;59099;48.806;9.160;2022-07-05T07:22:55;20.60;99.90
1301;DHT22;59099;48.806;9.160;2022-07-05T07:25:21;20.70;99.90
1301;DHT22;59099;48.806;9.160;2022-07-05T07:27:50;20.80;99.90
1301;DHT22;59099;48.806;9.160;2022-07-05T07:30:18;20.90;99.90
1301;DHT22;59099;48.806;9.160;2022-07-05T07:33:00;21.00;99.90
1301;DHT22;59099;48.806;9.160;2022-07-05T07:35:26;21.10;99.90
1301;DHT22;59099;48.806;9.160;2022-07-05T07:37:52;21.20;99.90
1301;DHT22;59099;48.806;9.160;2022-07-05T07:40:18;21.30;99.90
1301;DHT22;59099;48.806;9.160;2022-07-05T07:42:44;21.40;99.90
1301;DHT22;59099;48.806;9.160;2022-07-05T07:45:10;21.50;99.90
1301;DHT22;59099;48.806;9.160;2022-07-05T07:47:36;21.50;99.90
1301;DHT22;59099;48.806;9.160;2022-07-05T07:50:05;21.50;99.90
1301;DHT22;59099;48.806;9.160;2022-07-05T07:52:32;21.60;99.90
1301;DHT22;59099;48.806;9.160;2022-07-05T07:55:00;21.70;99.90
1301;DHT22;59099;48.806;9.160;2022-07-05T07:57:26;21.80;99.90
1301;DHT22;59099;48.806;9.160;2022-07-05T07:59:52;22.00;99.90
1301;DHT22;59099;48.806;9.160;2022-07-05T08:02:18;22.10;98.00
1301;DHT22;59099;48.806;9.160;2022-07-05T08:04:47;22.10;98.60
1301;DHT22;59099;48.806;9.160;2022-07-05T08:07:17;22.10;97.80
1301;DHT22;59099;48.806;9.160;2022-07-05T08:09:44;22.10;96.70
1301;DHT22;59099;48.806;9.160;2022-07-05T08:12:10;22.20;98.10
1301;DHT22;59099;48.806;9.160;2022-07-05T08:14:51;22.20;96.50
1301;DHT22;59099;48.806;9.160;2022-07-05T08:17:17;22.30;96.00
1301;DHT22;59099;48.806;9.160;2022-07-05T08:19:46;22.30;98.10
1301;DHT22;59099;48.806;9.160;2022-07-05T08:22:31;22.40;98.40
1301;DHT22;59099;48.806;9.160;2022-07-05T08:24:57;22.50;99.30
1301;DHT22;59099;48.806;9.160;2022-07-05T08:27:24;22.60;98.20
1301;DHT22;59099;48.806;9.160;2022-07-05T08:29:50;22.70;98.30
1301;DHT22;59099;48.806;9.160;2022-07-05T08:32:16;22.80;98.40
1301;DHT22;59099;48.806;9.160;2022-07-05T08:34:42;22.90;96.60
1301;DHT22;59099;48.806;9.160;2022-07-05T08:37:07;22.90;93.20
1301;DHT22;59099;48.806;9.160;2022-07-05T08:39:34;22.90;93.80
1301;DHT22;59099;48.806;9.160;2022-07-05T08:42:00;23.00;93.20
1301;DHT22;59099;48.806;9.160;2022-07-05T08:44:32;23.10;93.30
1301;DHT22;59099;48.806;9.160;2022-07-05T08:47:02;23.10;93.00
1301;DHT22;59099;48.806;9.160;2022-07-05T08:49:28;23.10;92.60
1301;DHT22;59099;48.806;9.160;2022-07-05T08:51:56;23.30;91.20
1301;DHT22;59099;48.806;9.160;2022-07-05T08:54:23;23.30;91.60
1301;DHT22;59099;48.806;9.160;2022-07-05T08:56:50;23.30;91.50
1301;DHT22;59099;48.806;9.160;2022-07-05T08:59:16;23.40;91.80
1301;DHT22;59099;48.806;9.160;2022-07-05T09:01:45;23.50;91.90
1301;DHT22;59099;48.806;9.160;2022-07-05T09:04:12;23.60;93.40
1301;DHT22;59099;48.806;9.160;2022-07-05T09:06:39;23.80;92.60
1301;DHT22;59099;48.806;9.160;2022-07-05T09:09:06;23.80;91.10
1301;DHT22;59099;48.806;9.160;2022-07-05T09:11:42;23.80;90.00
1301;DHT22;59099;48.806;9.160;2022-07-05T09:14:23;23.80;88.40
1301;DHT22;59099;48.806;9.160;2022-07-05T09:16:50;23.80;86.80
1301;DHT22;59099;48.806;9.160;2022-07-05T09:19:16;23.90;87.90
1301;DHT22;59099;48.806;9.160;2022-07-05T09:21:43;24.00;91.50
1301;DHT22;59099;48.806;9.160;2022-07-05T09:24:10;24.20;90.80
1301;DHT22;59099;48.806;9.160;2022-07-05T09:26:39;24.30;88.90
1301;DHT22;59099;48.806;9.160;2022-07-05T09:29:10;24.40;90.00
1301;DHT22;59099;48.806;9.160;2022-07-05T09:31:40;24.50;87.00
1301;DHT22;59099;48.806;9.160;2022-07-05T09:34:10;24.60;83.50
1301;DHT22;59099;48.806;9.160;2022-07-05T09:39:15;24.60;80.50
1301;DHT22;59099;48.806;9.160;2022-07-05T09:41:40;24.70;82.20
1301;DHT22;59099;48.806;9.160;2022-07-05T09:44:07;24.80;79.40
1301;DHT22;59099;48.806;9.160;2022-07-05T09:46:33;24.90;82.10
1301;DHT22;59099;48.806;9.160;2022-07-05T09:49:00;25.00;83.40
1301;DHT22;59099;48.806;9.160;2022-07-05T09:51:26;25.00;76.80
1301;DHT22;59099;48.806;9.160;2022-07-05T09:53:54;24.90;76.90
1301;DHT22;59099;48.806;9.160;2022-07-05T09:56:21;25.00;74.70
1301;DHT22;59099;48.806;9.160;2022-07-05T09:58:47;25.10;80.60
1301;DHT22;59099;48.806;9.160;2022-07-05T10:01:27;25.20;82.30
1301;DHT22;59099;48.806;9.160;2022-07-05T10:04:00;25.40;79.50
1301;DHT22;59099;48.806;9.160;2022-07-05T10:06:32;25.40;74.40
1301;DHT22;59099;48.806;9.160;2022-07-05T10:08:59;25.50;74.10
1301;DHT22;59099;48.806;9.160;2022-07-05T10:11:25;25.60;72.70
1301;DHT22;59099;48.806;9.160;2022-07-05T10:13:53;25.70;74.70
1301;DHT22;59099;48.806;9.160;2022-07-05T10:16:23;25.80;70.90
1301;DHT22;59099;48.806;9.160;2022-07-05T10:18:55;25.90;74.30
1301;DHT22;59099;48.806;9.160;2022-07-05T10:21:23;26.00;78.20
1301;DHT22;59099;48.806;9.160;2022-07-05T10:23:51;26.20;84.40
1301;DHT22;59099;48.806;9.160;2022-07-05T10:26:20;26.30;80.50
1301;DHT22;59099;48.806;9.160;2022-07-05T10:28:47;26.60;90.30
1301;DHT22;59099;48.806;9.160;2022-07-05T10:31:16;26.60;91.60
1301;DHT22;59099;48.806;9.160;2022-07-05T10:33:43;26.90;91.00
1301;DHT22;59099;48.806;9.160;2022-07-05T10:36:13;27.00;71.80
1301;DHT22;59099;48.806;9.160;2022-07-05T10:38:47;27.00;90.70
1301;DHT22;59099;48.806;9.160;2022-07-05T10:41:19;27.20;82.20
1301;DHT22;59099;48.806;9.160;2022-07-05T10:43:54;27.60;79.40
1301;DHT22;59099;48.806;9.160;2022-07-05T10:46:37;27.90;77.90
1301;DHT22;59099;48.806;9.160;2022-07-05T10:49:14;27.90;62.50
1301;DHT22;59099;48.806;9.160;2022-07-05T10:51:41;28.50;77.00
1301;DHT22;59099;48.806;9.160;2022-07-05T10:54:07;29.30;80.80
1301;DHT22;59099;48.806;9.160;2022-07-05T10:56:33;29.30;64.40
1301;DHT22;59099;48.806;9.160;2022-07-05T10:59:09;30.30;61.60
1301;DHT22;59099;48.806;9.160;2022-07-05T11:01:39;31.50;71.90
1301;DHT22;59099;48.806;9.160;2022-07-05T11:04:17;32.00;53.10
1301;DHT22;59099;48.806;9.160;2022-07-05T11:06:45;32.20;57.60
1301;DHT22;59099;48.806;9.160;2022-07-05T11:09:19;32.40;51.50
1301;DHT22;59099;48.806;9.160;2022-07-05T11:19:58;32.90;49.60
1301;DHT22;59099;48.806;9.160;2022-07-05T11:22:24;32.70;49.00
1301;DHT22;59099;48.806;9.160;2022-07-05T11:24:50;32.40;53.30
1301;DHT22;59099;48.806;9.160;2022-07-05T11:27:17;33.30;58.90
1301;DHT22;59099;48.806;9.160;2022-07-05T11:32:13;33.70;58.00
1301;DHT22;59099;48.806;9.160;2022-07-05T11:34:41;34.10;50.40
1301;DHT22;59099;48.806;9.160;2022-07-05T11:39:40;34.00;51.40
1301;DHT22;59099;48.806;9.160;2022-07-05T11:42:08;34.60;48.70
1301;DHT22;59099;48.806;9.160;2022-07-05T11:44:35;35.40;48.90
1301;DHT22;59099;48.806;9.160;2022-07-05T11:47:02;35.80;52.40
1301;DHT22;59099;48.806;9.160;2022-07-05T11:49:29;36.60;50.50
1301;DHT22;59099;48.806;9.160;2022-07-05T11:52:00;37.20;44.40
1301;DHT22;59099;48.806;9.160;2022-07-05T11:54:28;37.50;45.40
1301;DHT22;59099;48.806;9.160;2022-07-05T11:56:56;38.20;46.80
1301;DHT22;59099;48.806;9.160;2022-07-05T11:59:24;38.10;48.40
1301;DHT22;59099;48.806;9.160;2022-07-05T12:01:50;38.00;45.40
1301;DHT22;59099;48.806;9.160;2022-07-05T12:04:28;38.50;48.60
1301;DHT22;59099;48.806;9.160;2022-07-05T12:06:59;38.00;42.00
1301;DHT22;59099;48.806;9.160;2022-07-05T12:09:27;37.70;45.10
1301;DHT22;59099;48.806;9.160;2022-07-05T12:11:54;38.30;44.80
1301;DHT22;59099;48.806;9.160;2022-07-05T12:14:49;38.60;42.40
1301;DHT22;59099;48.806;9.160;2022-07-05T12:17:17;37.90;42.20
1301;DHT22;59099;48.806;9.160;2022-07-05T12:19:47;36.20;43.10
1301;DHT22;59099;48.806;9.160;2022-07-05T12:22:13;36.10;46.80
1301;DHT22;59099;48.806;9.160;2022-07-05T12:24:43;36.00;43.70
1301;DHT22;59099;48.806;9.160;2022-07-05T12:27:10;35.70;45.20
1301;DHT22;59099;48.806;9.160;2022-07-05T12:29:36;35.30;45.80
1301;DHT22;59099;48.806;9.160;2022-07-05T12:32:04;34.60;44.70
1301;DHT22;59099;48.806;9.160;2022-07-05T12:34:31;33.00;48.40
1301;DHT22;59099;48.806;9.160;2022-07-05T12:36:57;32.60;46.50
1301;DHT22;59099;48.806;9.160;2022-07-05T12:39:24;32.10;46.70
1301;DHT22;59099;48.806;9.160;2022-07-05T12:41:50;32.00;57.50
1301;DHT22;59099;48.806;9.160;2022-07-05T12:44:19;32.40;54.40
1301;DHT22;59099;48.806;9.160;2022-07-05T12:46:46;32.80;51.30
1301;DHT22;59099;48.806;9.160;2022-07-05T12:49:15;33.30;54.80
1301;DHT22;59099;48.806;9.160;2022-07-05T12:51:42;34.10;54.10
1301;DHT22;59099;48.806;9.160;2022-07-05T12:54:22;34.80;46.00
1301;DHT22;59099;48.806;9.160;2022-07-05T12:57:07;34.50;45.40
1301;DHT22;59099;48.806;9.160;2022-07-05T13:02:41;36.80;47.80
1301;DHT22;59099;48.806;9.160;2022-07-05T13:05:09;37.60;46.50
1301;DHT22;59099;48.806;9.160;2022-07-05T13:07:43;38.30;42.10
1301;DHT22;59099;48.806;9.160;2022-07-05T13:10:19;37.20;41.70
1301;DHT22;59099;48.806;9.160;2022-07-05T13:12:46;36.40;42.30
1301;DHT22;59099;48.806;9.160;2022-07-05T13:15:12;36.90;43.30
1301;DHT22;59099;48.806;9.160;2022-07-05T13:17:38;38.50;46.00
1301;DHT22;59099;48.806;9.160;2022-07-05T13:20:05;39.70;43.60
1301;DHT22;59099;48.806;9.160;2022-07-05T13:22:47;40.20;40.60
1301;DHT22;59099;48.806;9.160;2022-07-05T13:25:13;39.90;38.90
1301;DHT22;59099;48.806;9.160;2022-07-05T13:27:40;39.60;39.00
1301;DHT22;59099;48.806;9.160;2022-07-05T13:30:06;38.90;44.60
1301;DHT22;59099;48.806;9.160;2022-07-05T13:32:32;39.00;42.30
1301;DHT22;59099;48.806;9.160;2022-07-05T13:34:58;39.50;40.90
1301;DHT22;59099;48.806;9.160;2022-07-05T13:37:24;39.90;40.90
1301;DHT22;59099;48.806;9.160;2022-07-05T13:39:50;41.40;42.40
1301;DHT22;59099;48.806;9.160;2022-07-05T13:42:19;41.60;38.70
1301;DHT22;59099;48.806;9.160;2022-07-05T13:44:45;41.10;37.30
1301;DHT22;59099;48.806;9.160;2022-07-05T13:47:11;40.00;42.00
1301;DHT22;59099;48.806;9.160;2022-07-05T13:49:52;39.80;41.00
1301;DHT22;59099;48.806;9.160;2022-07-05T13:52:38;40.20;45.80
1301;DHT22;59099;48.806;9.160;2022-07-05T13:55:04;41.30;39.70
1301;DHT22;59099;48.806;9.160;2022-07-05T13:57:31;41.10;38.30
1301;DHT22;59099;48.806;9.160;2022-07-05T13:59:57;41.10;37.20
1301;DHT22;59099;48.806;9.160;2022-07-05T14:02:23;41.40;44.80
1301;DHT22;59099;48.806;9.160;2022-07-05T14:04:49;41.40;37.70
1301;DHT22;59099;48.806;9.160;2022-07-05T14:07:15;41.70;38.40
1301;DHT22;59099;48.806;9.160;2022-07-05T14:09:40;42.00;37.70
1301;DHT22;59099;48.806;9.160;2022-07-05T14:12:06;42.90;38.20
1301;DHT22;59099;48.806;9.160;2022-07-05T14:14:32;43.80;37.60
1301;DHT22;59099;48.806;9.160;2022-07-05T14:16:58;43.90;37.20
1301;DHT22;59099;48.806;9.160;2022-07-05T14:19:24;44.00;39.70
1301;DHT22;59099;48.806;9.160;2022-07-05T14:21:50;43.90;41.80
1301;DHT22;59099;48.806;9.160;2022-07-05T14:24:16;43.10;37.10
1301;DHT22;59099;48.806;9.160;2022-07-05T14:26:41;42.50;38.10
1301;DHT22;59099;48.806;9.160;2022-07-05T14:29:07;42.00;41.50
1301;DHT22;59099;48.806;9.160;2022-07-05T14:31:34;41.40;37.20
1301;DHT22;59099;48.806;9.160;2022-07-05T14:33:59;39.60;38.80
1301;DHT22;59099;48.806;9.160;2022-07-05T14:36:25;39.70;38.60
1301;DHT22;59099;48.806;9.160;2022-07-05T14:38:51;40.00;40.20
1301;DHT22;59099;48.806;9.160;2022-07-05T14:41:17;40.60;37.90
1301;DHT22;59099;48.806;9.160;2022-07-05T14:43:43;40.50;38.50
1301;DHT22;59099;48.806;9.160;2022-07-05T14:46:09;39.70;42.40
1301;DHT22;59099;48.806;9.160;2022-07-05T14:48:37;39.70;40.00
1301;DHT22;59099;48.806;9.160;2022-07-05T14:51:03;39.50;38.80
1301;DHT22;59099;48.806;9.160;2022-07-05T14:53:29;39.60;45.20
1301;DHT22;59099;48.806;9.160;2022-07-05T14:55:55;39.30;41.20
1301;DHT22;59099;48.806;9.160;2022-07-05T14:58:21;39.20;42.20
1301;DHT22;59099;48.806;9.160;2022-07-05T15:00:51;39.60;41.70
1301;DHT22;59099;48.806;9.160;2022-07-05T15:03:16;39.70;44.50
1301;DHT22;59099;48.806;9.160;2022-07-05T15:05:43;39.70;41.60
1301;DHT22;59099;48.806;9.160;2022-07-05T15:08:08;39.10;40.30
1301;DHT22;59099;48.806;9.160;2022-07-05T15:10:34;38.80;40.10
1301;DHT22;59099;48.806;9.160;2022-07-05T15:13:00;39.20;44.70
1301;DHT22;59099;48.806;9.160;2022-07-05T15:15:26;39.10;38.30
1301;DHT22;59099;48.806;9.160;2022-07-05T15:17:52;38.20;39.10
1301;DHT22;59099;48.806;9.160;2022-07-05T15:20:18;38.40;44.00
1301;DHT22;59099;48.806;9.160;2022-07-05T15:22:48;38.70;43.60
1301;DHT22;59099;48.806;9.160;2022-07-05T15:25:13;38.70;43.30
1301;DHT22;59099;48.806;9.160;2022-07-05T15:27:39;38.10;41.40
1301;DHT22;59099;48.806;9.160;2022-07-05T15:30:05;37.70;40.60
1301;DHT22;59099;48.806;9.160;2022-07-05T15:32:32;37.10;42.30
1301;DHT22;59099;48.806;9.160;2022-07-05T15:34:58;36.80;40.70
1301;DHT22;59099;48.806;9.160;2022-07-05T15:37:23;36.60;48.80
1301;DHT22;59099;48.806;9.160;2022-07-05T15:39:49;36.60;44.40
1301;DHT22;59099;48.806;9.160;2022-07-05T15:42:15;35.90;40.20
1301;DHT22;59099;48.806;9.160;2022-07-05T15:44:44;35.20;42.80
1301;DHT22;59099;48.806;9.160;2022-07-05T15:47:10;35.50;48.50
1301;DHT22;59099;48.806;9.160;2022-07-05T15:49:37;36.00;42.30
1301;DHT22;59099;48.806;9.160;2022-07-05T15:52:03;37.00;52.00
1301;DHT22;59099;48.806;9.160;2022-07-05T15:54:29;37.30;44.20
1301;DHT22;59099;48.806;9.160;2022-07-05T15:56:55;37.80;42.40
1301;DHT22;59099;48.806;9.160;2022-07-05T15:59:23;38.30;43.20
1301;DHT22;59099;48.806;9.160;2022-07-05T16:01:50;38.40;47.20
1301;DHT22;59099;48.806;9.160;2022-07-05T16:04:16;38.00;46.00
1301;DHT22;59099;48.806;9.160;2022-07-05T16:06:42;38.30;45.10
1301;DHT22;59099;48.806;9.160;2022-07-05T16:09:08;38.50;41.10
1301;DHT22;59099;48.806;9.160;2022-07-05T16:11:35;38.90;46.30